地図

経路データ

SID SEASON NUMBER BASIN SUBBASIN NAME ISO_TIME NATURE LAT LON WMO_WIND WMO_PRES WMO_AGENCY TRACK_TYPE DIST2LAND LANDFALL IFLAG USA_AGENCY USA_ATCF_ID USA_LAT USA_LON USA_RECORD USA_STATUS USA_WIND USA_PRES USA_SSHS USA_R34_NE USA_R34_SE USA_R34_SW USA_R34_NW USA_R50_NE USA_R50_SE USA_R50_SW USA_R50_NW USA_R64_NE USA_R64_SE USA_R64_SW USA_R64_NW USA_POCI USA_ROCI USA_RMW USA_EYE TOKYO_LAT TOKYO_LON TOKYO_GRADE TOKYO_WIND TOKYO_PRES TOKYO_R50_DIR TOKYO_R50_LONG TOKYO_R50_SHORT TOKYO_R30_DIR TOKYO_R30_LONG TOKYO_R30_SHORT TOKYO_LAND CMA_LAT CMA_LON CMA_CAT CMA_WIND CMA_PRES HKO_LAT HKO_LON HKO_CAT HKO_WIND HKO_PRES NEWDELHI_LAT NEWDELHI_LON NEWDELHI_GRADE NEWDELHI_WIND NEWDELHI_PRES NEWDELHI_CI NEWDELHI_DP NEWDELHI_POCI REUNION_LAT REUNION_LON REUNION_TYPE REUNION_WIND REUNION_PRES REUNION_TNUM REUNION_CI REUNION_RMW REUNION_R34_NE REUNION_R34_SE REUNION_R34_SW REUNION_R34_NW REUNION_R50_NE REUNION_R50_SE REUNION_R50_SW REUNION_R50_NW REUNION_R64_NE REUNION_R64_SE REUNION_R64_SW REUNION_R64_NW BOM_LAT BOM_LON BOM_TYPE BOM_WIND BOM_PRES BOM_TNUM BOM_CI BOM_RMW BOM_R34_NE BOM_R34_SE BOM_R34_SW BOM_R34_NW BOM_R50_NE BOM_R50_SE BOM_R50_SW BOM_R50_NW BOM_R64_NE BOM_R64_SE BOM_R64_SW BOM_R64_NW BOM_ROCI BOM_POCI BOM_EYE BOM_POS_METHOD BOM_PRES_METHOD NADI_LAT NADI_LON NADI_CAT NADI_WIND NADI_PRES WELLINGTON_LAT WELLINGTON_LON WELLINGTON_WIND WELLINGTON_PRES DS824_LAT DS824_LON DS824_STAGE DS824_WIND DS824_PRES TD9636_LAT TD9636_LON TD9636_STAGE TD9636_WIND TD9636_PRES TD9635_LAT TD9635_LON TD9635_WIND TD9635_PRES TD9635_ROCI NEUMANN_LAT NEUMANN_LON NEUMANN_CLASS NEUMANN_WIND NEUMANN_PRES MLC_LAT MLC_LON MLC_CLASS MLC_WIND MLC_PRES USA_GUST BOM_GUST BOM_GUST_PER REUNION_GUST REUNION_GUST_PER USA_SEAHGT USA_SEARAD_NE USA_SEARAD_SE USA_SEARAD_SW USA_SEARAD_NW STORM_SPEED STORM_DIR
1925206N22089 1925 32 NI BB NOT_NAMED 1925-07-25 00:00:00 TS 22.3000 88.9000 main 0 0 _________O____ -1 22.3000 88.9000 TC 30 2 200
1925206N22089 1925 32 NI BB NOT_NAMED 1925-07-25 03:00:00 TS 22.1950 88.8650 main 0 0 _________PO___ -1 22.1425 88.8475 TC 30 22.3000 88.9000 1 3 197
1925206N22089 1925 32 NI BB NOT_NAMED 1925-07-25 06:00:00 TS 22.0613 88.8162 main 0 0 _________OP___ -1 22.0000 88.8000 TC 30 22.1533 88.8405 1 3 199
1925206N22089 1925 32 NI BB NOT_NAMED 1925-07-25 09:00:00 TS 21.9408 88.7692 main 0 0 _________PP___ -1 21.8850 88.7575 TC 30 22.0153 88.7849 1 2 202
1925206N22089 1925 32 NI BB NOT_NAMED 1925-07-25 12:00:00 TS 21.8473 88.7184 main 10 10 _________OP___ -1 21.8000 88.7000 TC 30 21.8946 88.7368 1 2 211
1925206N22089 1925 32 NI BB NOT_NAMED 1925-07-25 15:00:00 TS 21.7675 88.6537 main 10 0 _________PO___ -1 21.7350 88.6075 TC 30 21.8000 88.7000 1 2 225
1925206N22089 1925 32 NI BB NOT_NAMED 1925-07-25 18:00:00 TS 21.7188 88.5856 main 10 0 _________OP___ -1 21.7000 88.5000 TC 30 21.7376 88.6712 1 1 238
1925206N22089 1925 32 NI BB NOT_NAMED 1925-07-25 21:00:00 TS 21.6982 88.5362 main 0 0 _________PP___ -1 21.6923 88.4525 TC 30 21.7042 88.6199 1 2 262
1925206N22089 1925 32 NI BB NOT_NAMED 1925-07-26 00:00:00 TS 21.6968 88.4043 main 0 0 _________OP___ -1 21.7000 88.3000 TC 30 21.6936 88.5087 1 4 270
1925206N22089 1925 32 NI BB NOT_NAMED 1925-07-26 03:00:00 TS 21.6963 88.1012 main 10 0 _________PO___ -1 21.6927 87.9024 TC 30 21.7000 88.3000 1 7 270
1925206N22089 1925 32 NI BB NOT_NAMED 1925-07-26 06:00:00 TS 21.6997 87.6631 main 0 0 _________OP___ -1 21.7000 87.4000 TC 30 21.6994 87.9262 1 8 272
1925206N22089 1925 32 NI BB NOT_NAMED 1925-07-26 09:00:00 TS 21.7245 87.1937 main 0 0 _________PP___ -1 21.7350 86.9275 TC 30 21.7139 87.4599 1 9 275
1925206N22089 1925 32 NI BB NOT_NAMED 1925-07-26 12:00:00 TS 21.7731 86.7318 main 0 0 _________OP___ -1 21.8000 86.5000 TC 30 21.7463 86.9636 1 8 279
1925206N22089 1925 32 NI BB NOT_NAMED 1925-07-26 15:00:00 TS 21.8461 86.3387 main 0 0 _________PO___ -1 21.8923 86.1775 TC 30 21.8000 86.5000 1 7 284
1925206N22089 1925 32 NI BB NOT_NAMED 1925-07-26 18:00:00 TS 21.9365 86.0506 main 0 0 _________OP___ -1 22.0000 85.9000 TC 30 21.8730 86.2013 1 5 290
1925206N22089 1925 32 NI BB NOT_NAMED 1925-07-26 21:00:00 TS 22.0301 85.7871 main 0 0 _________PP___ -1 22.0922 85.6373 TC 30 21.9680 85.9370 1 6 291
1925206N22089 1925 32 NI BB NOT_NAMED 1925-07-27 00:00:00 TS 22.1396 85.4771 main 0 0 _________OP___ -1 22.2000 85.3000 TC 30 22.0791 85.6542 1 7 290
1925206N22089 1925 32 NI BB NOT_NAMED 1925-07-27 03:00:00 TS 22.2750 85.0476 main 0 0 _________PO___ -1 22.3501 84.7951 TC 30 22.2000 85.3000 1 9 287
1925206N22089 1925 32 NI BB NOT_NAMED 1925-07-27 06:00:00 TS 22.4091 84.5061 main 0 0 _________OP___ -1 22.5000 84.2000 TC 30 22.3181 84.8122 1 11 283
1925206N22089 1925 32 NI BB NOT_NAMED 1925-07-27 09:00:00 TS 22.5213 83.9273 main 0 0 _________PP___ -1 22.5999 83.6072 TC 30 22.4428 84.2474 1 11 282
1925206N22089 1925 32 NI BB NOT_NAMED 1925-07-27 12:00:00 TS 22.6355 83.3170 main 0 0 _________OP___ -1 22.7000 83.0000 TC 30 22.5710 83.6339 1 12 283
1925206N22089 1925 32 NI BB NOT_NAMED 1925-07-27 15:00:00 TS 22.7748 82.7038 main 0 0 _________PO___ -1 22.8497 82.4075 TC 30 22.7000 83.0000 1 11 284
1925206N22089 1925 32 NI BB NOT_NAMED 1925-07-27 18:00:00 TS 22.9016 82.1251 main 0 0 _________OP___ -1 23.0000 81.8000 TC 30 22.8278 82.3689 1 11 282
1925206N22089 1925 32 NI BB NOT_NAMED 1925-07-27 21:00:00 TS 23.0175 81.5100 main 0 0 _________PP___ -1 23.1131 81.1601 TC 30 22.9538 81.7433 1 11 281
1925206N22089 1925 32 NI BB NOT_NAMED 1925-07-28 00:00:00 TS 23.1187 80.9141 main 0 0 _________OP___ -1 23.2000 80.5000 TC 30 23.0780 81.1211 1 9 281
1925206N22089 1925 32 NI BB NOT_NAMED 1925-07-28 03:00:00 NR 23.2000 80.5000 main 0 __________O___ -1 TC 23.2000 80.5000 1 8 282

IBTrACS Databaseについて

本データベースは、米国NOAAが公開する1842年以降の世界の熱帯低気圧のベストトラックデータアーカイブInternational Best Track Archive for Climate Stewardship (IBTrACS)を、ウェブで閲覧しやすい形式に変換したものです。

最終更新日:2021-10-08